createdAt,value
2019-02-09T00:00:48.097Z,1001.66
2019-02-09T00:01:48.055Z,1001.63
2019-02-09T00:02:48.035Z,1001.64
2019-02-09T00:03:48.025Z,1001.64
2019-02-09T00:04:48.012Z,1001.58
2019-02-09T00:05:48.030Z,1001.56
2019-02-09T00:06:48.004Z,1001.54
2019-02-09T00:07:47.983Z,1001.57
2019-02-09T00:08:47.979Z,1001.47
2019-02-09T00:09:47.963Z,1001.42
2019-02-09T00:10:47.977Z,1001.42
2019-02-09T00:11:47.940Z,1001.40
2019-02-09T00:12:47.931Z,1001.36
2019-02-09T00:13:47.921Z,1001.35
2019-02-09T00:14:47.910Z,1001.32
2019-02-09T00:15:47.930Z,1001.35
2019-02-09T00:16:47.889Z,1001.34
2019-02-09T00:17:47.888Z,1001.31
2019-02-09T00:18:47.871Z,1001.24
2019-02-09T00:19:47.856Z,1001.27
2019-02-09T00:20:47.869Z,1001.27
2019-02-09T00:21:47.837Z,1001.24
2019-02-09T00:22:47.827Z,1001.28
2019-02-09T00:23:47.815Z,1001.16
2019-02-09T00:24:47.804Z,1001.24
2019-02-09T00:25:47.821Z,1001.24
2019-02-09T00:26:47.784Z,1001.14
2019-02-09T00:27:47.770Z,1001.18
2019-02-09T00:28:47.762Z,1001.11
2019-02-09T00:29:47.753Z,1001.10
2019-02-09T00:30:47.764Z,1001.11
2019-02-09T00:31:47.730Z,1001.14
2019-02-09T00:32:47.722Z,1001.09
2019-02-09T00:33:47.709Z,1001.14
2019-02-09T00:34:47.715Z,1001.11
2019-02-09T00:35:47.765Z,1001.10
2019-02-09T00:36:47.682Z,1001.09
2019-02-09T00:37:47.667Z,1001.05
2019-02-09T00:38:47.660Z,1001.06
2019-02-09T00:39:47.651Z,1000.95
2019-02-09T00:40:47.664Z,1001.05
2019-02-09T00:41:47.625Z,1001.01
2019-02-09T00:42:47.666Z,1001.05
2019-02-09T00:43:47.624Z,1001.06
2019-02-09T00:44:47.606Z,1000.93
2019-02-09T00:45:47.610Z,1000.91
2019-02-09T00:46:47.571Z,1000.91
2019-02-09T00:47:47.563Z,1000.90
2019-02-09T00:48:47.550Z,1000.91
2019-02-09T00:49:47.545Z,1000.91
2019-02-09T00:50:47.574Z,1000.74
2019-02-09T00:51:47.521Z,1000.72
2019-02-09T00:52:47.510Z,1000.80
2019-02-09T00:53:48.152Z,1000.80
2019-02-09T00:54:47.489Z,1000.81
2019-02-09T00:55:47.477Z,1000.79
2019-02-09T00:56:47.508Z,1000.75
2019-02-09T00:57:47.456Z,1000.71
2019-02-09T00:58:47.525Z,1000.55
2019-02-09T00:59:54.017Z,1000.57
2019-02-09T01:00:48.464Z,1000.68
2019-02-09T01:01:47.417Z,1000.63
2019-02-09T01:02:47.437Z,1000.69
2019-02-09T01:03:47.393Z,1000.60
2019-02-09T01:04:47.396Z,1000.60
2019-02-09T01:05:47.369Z,1000.61
2019-02-09T01:06:47.359Z,1000.54
2019-02-09T01:07:47.354Z,1000.54
2019-02-09T01:08:47.366Z,1000.55
2019-02-09T01:09:47.328Z,1000.51
2019-02-09T01:10:47.322Z,1000.52
2019-02-09T01:11:47.306Z,1000.52
2019-02-09T01:12:47.294Z,1000.51
2019-02-09T01:13:47.320Z,1000.54
2019-02-09T01:14:47.272Z,1000.52
2019-02-09T01:15:47.393Z,1000.48
2019-02-09T01:16:47.248Z,1000.50
2019-02-09T01:17:47.240Z,1000.45
2019-02-09T01:18:47.229Z,1000.41
2019-02-09T01:19:47.255Z,1000.44
2019-02-09T01:20:47.208Z,1000.44
2019-02-09T01:21:47.196Z,1000.43
2019-02-09T01:22:47.187Z,1000.43
2019-02-09T01:23:47.173Z,1000.41
2019-02-09T01:24:47.162Z,1000.33
2019-02-09T01:25:47.178Z,1000.35
2019-02-09T01:26:47.205Z,1000.30
2019-02-09T01:27:47.135Z,1000.31
2019-02-09T01:28:47.123Z,1000.29
2019-02-09T01:29:47.112Z,1000.33
2019-02-09T01:30:47.132Z,1000.29
2019-02-09T01:31:47.086Z,1000.27
2019-02-09T01:32:47.080Z,1000.22
2019-02-09T01:33:47.067Z,1000.19
2019-02-09T01:34:47.055Z,1000.06
2019-02-09T01:35:47.068Z,1000.05
2019-02-09T01:36:47.036Z,1000.05
2019-02-09T01:37:47.022Z,999.96
2019-02-09T01:38:47.012Z,999.89
2019-02-09T01:39:47.000Z,1000.01
2019-02-09T01:40:47.020Z,999.90
2019-02-09T01:41:47.027Z,999.83
2019-02-09T01:42:46.973Z,999.91
2019-02-09T01:43:46.958Z,999.88
2019-02-09T01:44:46.947Z,999.86
2019-02-09T01:45:46.962Z,999.86
2019-02-09T01:46:46.929Z,999.82
2019-02-09T01:47:46.913Z,999.83
2019-02-09T01:48:46.903Z,999.81
2019-02-09T01:49:46.892Z,999.79
2019-02-09T01:50:46.907Z,999.81
2019-02-09T01:51:46.875Z,999.80
2019-02-09T01:52:46.860Z,999.73
2019-02-09T01:53:46.854Z,999.65
2019-02-09T01:54:46.841Z,999.75
2019-02-09T01:55:46.855Z,999.75
2019-02-09T01:56:46.818Z,999.70
2019-02-09T01:57:46.808Z,999.72
2019-02-09T01:58:46.799Z,999.62
2019-02-09T01:59:46.793Z,999.61
2019-02-09T02:00:46.800Z,999.64
2019-02-09T02:01:46.767Z,999.54
2019-02-09T02:02:46.756Z,999.53
2019-02-09T02:03:46.748Z,999.59
2019-02-09T02:04:46.741Z,999.52
2019-02-09T02:05:46.749Z,999.46
2019-02-09T02:06:46.714Z,999.43
2019-02-09T02:07:46.703Z,999.42
2019-02-09T02:08:46.693Z,999.44
2019-02-09T02:09:46.684Z,999.36
2019-02-09T02:10:46.698Z,999.22
2019-02-09T02:11:46.660Z,999.25
2019-02-09T02:12:46.651Z,999.20
2019-02-09T02:13:46.641Z,999.18
2019-02-09T02:14:46.631Z,999.19
2019-02-09T02:15:46.646Z,999.20
2019-02-09T02:16:46.611Z,999.14
2019-02-09T02:17:46.603Z,999.11
2019-02-09T02:18:46.591Z,999.13
2019-02-09T02:19:46.580Z,999.12
2019-02-09T02:20:46.593Z,999.14
2019-02-09T02:21:46.558Z,999.16
2019-02-09T02:22:46.547Z,999.19
2019-02-09T02:23:46.543Z,999.12
2019-02-09T02:24:46.528Z,999.15
2019-02-09T02:25:46.539Z,999.14
2019-02-09T02:26:46.505Z,999.11
2019-02-09T02:27:46.497Z,999.12
2019-02-09T02:28:46.487Z,999.06
2019-02-09T02:29:46.472Z,999.01
2019-02-09T02:30:46.493Z,999.03
2019-02-09T02:31:46.452Z,998.98
2019-02-09T02:32:46.447Z,998.91
2019-02-09T02:33:46.431Z,998.89
2019-02-09T02:34:46.424Z,998.85
2019-02-09T02:35:46.438Z,998.83
2019-02-09T02:36:46.400Z,998.83
2019-02-09T02:37:46.392Z,998.83
2019-02-09T02:38:46.387Z,998.82
2019-02-09T02:39:46.368Z,998.80
2019-02-09T02:40:46.383Z,998.76
2019-02-09T02:41:46.348Z,998.77
2019-02-09T02:42:46.338Z,998.74
2019-02-09T02:43:46.327Z,998.68
2019-02-09T02:44:46.318Z,998.67
2019-02-09T02:45:46.340Z,998.66
2019-02-09T02:46:46.295Z,998.72
2019-02-09T02:47:46.288Z,998.66
2019-02-09T02:48:46.276Z,998.64
2019-02-09T02:49:46.266Z,998.55
2019-02-09T02:50:46.255Z,998.52
2019-02-09T02:51:46.278Z,998.56
2019-02-09T02:52:46.234Z,998.60
2019-02-09T02:53:46.221Z,998.54
2019-02-09T02:54:46.210Z,998.50
2019-02-09T02:55:46.200Z,998.47
2019-02-09T02:56:46.192Z,998.46
2019-02-09T02:57:46.202Z,998.39
2019-02-09T02:58:46.168Z,998.32
2019-02-09T02:59:46.158Z,998.34
2019-02-09T03:00:46.149Z,998.28
2019-02-09T03:01:46.137Z,998.27
2019-02-09T03:02:46.164Z,998.27
2019-02-09T03:03:46.115Z,998.31
2019-02-09T03:04:46.113Z,998.13
2019-02-09T03:05:46.095Z,998.22
2019-02-09T03:06:47.820Z,998.24
2019-02-09T03:07:46.076Z,998.22
2019-02-09T03:08:46.098Z,998.16
2019-02-09T03:09:46.052Z,998.22
2019-02-09T03:10:46.042Z,998.05
2019-02-09T03:11:46.033Z,998.06
2019-02-09T03:12:46.022Z,998.12
2019-02-09T03:13:46.010Z,998.04
2019-02-09T03:14:46.025Z,998.01
2019-02-09T03:15:45.990Z,997.92
2019-02-09T03:16:45.982Z,997.96
2019-02-09T03:17:45.967Z,997.80
2019-02-09T03:18:45.957Z,997.82
2019-02-09T03:19:45.984Z,997.73
2019-02-09T03:20:45.936Z,997.77
2019-02-09T03:21:45.926Z,997.69
2019-02-09T03:22:45.917Z,997.66
2019-02-09T03:23:45.912Z,997.62
2019-02-09T03:24:45.895Z,997.62
2019-02-09T03:25:45.909Z,997.58
2019-02-09T03:26:45.878Z,997.65
2019-02-09T03:27:45.873Z,997.56
2019-02-09T03:28:45.854Z,997.58
2019-02-09T03:29:45.845Z,997.60
2019-02-09T03:30:48.658Z,997.56
2019-02-09T03:31:45.824Z,997.62
2019-02-09T03:32:45.816Z,997.60
2019-02-09T03:33:45.800Z,997.56
2019-02-09T03:34:45.790Z,997.58
2019-02-09T03:35:45.804Z,997.57
2019-02-09T03:36:45.767Z,997.55
2019-02-09T03:37:45.758Z,997.53
2019-02-09T03:38:45.747Z,997.46
2019-02-09T03:39:45.736Z,997.51
2019-02-09T03:40:45.749Z,997.43
2019-02-09T03:41:45.714Z,997.37
2019-02-09T03:42:45.707Z,997.47
2019-02-09T03:43:45.699Z,997.44
2019-02-09T03:44:45.682Z,997.49
2019-02-09T03:45:45.698Z,997.50
2019-02-09T03:46:45.660Z,997.42
2019-02-09T03:47:45.653Z,997.45
2019-02-09T03:48:45.638Z,997.47
2019-02-09T03:49:45.627Z,997.38
2019-02-09T03:50:45.641Z,997.43
2019-02-09T03:51:45.604Z,997.45
2019-02-09T03:52:45.593Z,997.48
2019-02-09T03:53:45.643Z,997.40
2019-02-09T03:54:45.613Z,997.37
2019-02-09T03:55:45.588Z,997.39
2019-02-09T03:56:45.554Z,997.42
2019-02-09T03:57:45.554Z,997.46
2019-02-09T03:58:45.530Z,997.28
2019-02-09T03:59:45.530Z,997.28
2019-02-09T04:00:45.532Z,997.35
2019-02-09T04:01:45.620Z,997.32
2019-02-09T04:02:45.496Z,997.25
2019-02-09T04:03:45.477Z,997.25
2019-02-09T04:04:45.463Z,997.30
2019-02-09T04:05:45.479Z,997.21
2019-02-09T04:06:45.442Z,997.20
2019-02-09T04:07:45.431Z,997.25
2019-02-09T04:08:45.421Z,997.31
2019-02-09T04:09:45.411Z,997.26
2019-02-09T04:10:45.425Z,997.33
2019-02-09T04:11:45.388Z,997.26
2019-02-09T04:12:45.377Z,997.28
2019-02-09T04:13:45.368Z,997.23
2019-02-09T04:14:45.363Z,997.24
2019-02-09T04:15:45.384Z,997.26
2019-02-09T04:16:45.334Z,997.21
2019-02-09T04:17:45.328Z,997.14
2019-02-09T04:18:45.311Z,997.17
2019-02-09T04:19:45.303Z,997.20
2019-02-09T04:20:45.296Z,997.20
2019-02-09T04:21:45.314Z,997.23
2019-02-09T04:22:45.269Z,997.08
2019-02-09T04:23:45.256Z,997.15
2019-02-09T04:24:45.249Z,997.09
2019-02-09T04:25:45.237Z,997.14
2019-02-09T04:26:45.226Z,997.05
2019-02-09T04:27:45.251Z,997.07
2019-02-09T04:28:45.203Z,997.13
2019-02-09T04:29:45.193Z,997.10
2019-02-09T04:30:45.185Z,997.18
2019-02-09T04:31:45.169Z,997.19
2019-02-09T04:32:45.163Z,997.14
2019-02-09T04:33:45.188Z,997.16
2019-02-09T04:34:45.135Z,997.13
2019-02-09T04:35:45.125Z,997.14
2019-02-09T04:36:45.115Z,997.11
2019-02-09T04:37:45.104Z,996.96
2019-02-09T04:38:45.097Z,996.99
2019-02-09T04:39:45.130Z,996.97
2019-02-09T04:40:45.092Z,997.00
2019-02-09T04:41:45.060Z,997.02
2019-02-09T04:42:45.052Z,996.97
2019-02-09T04:43:45.037Z,996.93
2019-02-09T04:44:45.029Z,996.92
2019-02-09T04:45:45.040Z,996.85
2019-02-09T04:46:45.007Z,996.81
2019-02-09T04:47:44.993Z,996.79
2019-02-09T04:48:44.982Z,996.81
2019-02-09T04:49:44.995Z,996.82
2019-02-09T04:50:44.986Z,996.75
2019-02-09T04:51:44.949Z,996.84
2019-02-09T04:52:44.941Z,996.82
2019-02-09T04:53:44.928Z,996.75
2019-02-09T04:54:44.920Z,996.75
2019-02-09T04:55:44.933Z,996.61
2019-02-09T04:56:44.897Z,996.60
2019-02-09T04:57:44.885Z,996.67
2019-02-09T04:58:44.873Z,996.70
2019-02-09T04:59:44.863Z,996.68
2019-02-09T05:00:44.876Z,996.70
2019-02-09T05:01:44.840Z,996.69
2019-02-09T05:02:44.829Z,996.70
2019-02-09T05:03:44.820Z,996.74
2019-02-09T05:04:44.808Z,996.68
2019-02-09T05:05:44.823Z,996.63
2019-02-09T05:06:44.794Z,996.67
2019-02-09T05:07:44.777Z,996.63
2019-02-09T05:08:44.764Z,996.54
2019-02-09T05:09:44.752Z,996.65
2019-02-09T05:10:44.774Z,996.74
2019-02-09T05:11:44.734Z,996.66
2019-02-09T05:12:44.724Z,996.71
2019-02-09T05:13:44.711Z,996.63
2019-02-09T05:14:44.700Z,996.55
2019-02-09T05:15:44.718Z,996.61
2019-02-09T05:16:44.733Z,996.55
2019-02-09T05:17:44.668Z,996.58
2019-02-09T05:18:44.656Z,996.62
2019-02-09T05:19:44.646Z,996.67
2019-02-09T05:20:44.659Z,996.72
2019-02-09T05:21:44.629Z,996.68
2019-02-09T05:22:44.623Z,996.60
2019-02-09T05:23:44.605Z,996.63
2019-02-09T05:24:44.592Z,996.68
2019-02-09T05:25:44.609Z,996.67
2019-02-09T05:26:44.572Z,996.65
2019-02-09T05:27:44.563Z,996.70
2019-02-09T05:28:44.552Z,996.71
2019-02-09T05:29:44.542Z,996.66
2019-02-09T05:30:44.557Z,996.73
2019-02-09T05:31:44.518Z,996.78
2019-02-09T05:32:44.511Z,996.72
2019-02-09T05:33:44.500Z,996.68
2019-02-09T05:34:44.489Z,996.68
2019-02-09T05:35:44.504Z,996.73
2019-02-09T05:36:44.465Z,996.54
2019-02-09T05:37:44.454Z,996.68
2019-02-09T05:38:44.447Z,996.61
2019-02-09T05:39:44.437Z,996.69
2019-02-09T05:40:44.452Z,996.69
2019-02-09T05:41:44.414Z,996.66
2019-02-09T05:42:44.405Z,996.68
2019-02-09T05:43:44.393Z,996.63
2019-02-09T05:44:44.381Z,996.59
2019-02-09T05:45:44.410Z,996.63
2019-02-09T05:46:44.365Z,996.63
2019-02-09T05:47:44.352Z,996.61
2019-02-09T05:48:44.342Z,996.67
2019-02-09T05:49:44.332Z,996.64
2019-02-09T05:50:44.347Z,996.64
2019-02-09T05:51:44.309Z,996.61
2019-02-09T05:52:44.308Z,996.68
2019-02-09T05:53:44.292Z,996.62
2019-02-09T05:54:44.281Z,996.69
2019-02-09T05:55:44.293Z,996.65
2019-02-09T05:56:44.283Z,996.73
2019-02-09T05:57:44.245Z,996.69
2019-02-09T05:58:44.235Z,996.69
2019-02-09T05:59:44.224Z,996.63
2019-02-09T06:00:44.238Z,996.69
2019-02-09T06:01:44.201Z,996.55
2019-02-09T06:02:44.198Z,996.61
2019-02-09T06:03:44.181Z,996.64
2019-02-09T06:04:44.171Z,996.58
2019-02-09T06:05:44.225Z,996.65
2019-02-09T06:06:44.151Z,996.65
2019-02-09T06:07:44.139Z,996.63
2019-02-09T06:08:44.131Z,996.72
2019-02-09T06:09:44.119Z,996.66
2019-02-09T06:10:44.134Z,996.71
2019-02-09T06:11:44.101Z,996.64
2019-02-09T06:12:44.087Z,996.70
2019-02-09T06:13:44.077Z,996.66
2019-02-09T06:14:44.067Z,996.68
2019-02-09T06:15:44.083Z,996.68
2019-02-09T06:16:44.046Z,996.66
2019-02-09T06:17:44.040Z,996.77
2019-02-09T06:18:44.025Z,996.73
2019-02-09T06:19:44.013Z,996.71
2019-02-09T06:20:44.031Z,996.71
2019-02-09T06:21:43.996Z,996.69
2019-02-09T06:22:43.984Z,996.72
2019-02-09T06:23:43.972Z,996.65
2019-02-09T06:24:43.961Z,996.68
2019-02-09T06:25:43.975Z,996.67
2019-02-09T06:26:43.941Z,996.66
2019-02-09T06:27:43.929Z,996.71
2019-02-09T06:28:43.920Z,996.69
2019-02-09T06:29:43.908Z,996.77
2019-02-09T06:30:43.922Z,996.66
2019-02-09T06:31:43.888Z,996.70
2019-02-09T06:32:43.877Z,996.61
2019-02-09T06:33:43.868Z,996.66
2019-02-09T06:34:43.857Z,996.63
2019-02-09T06:35:43.868Z,996.65
2019-02-09T06:36:43.835Z,996.56
2019-02-09T06:37:43.828Z,996.61
2019-02-09T06:38:43.812Z,996.63
2019-02-09T06:39:43.807Z,996.65
2019-02-09T06:40:43.821Z,996.68
2019-02-09T06:41:43.784Z,996.74
2019-02-09T06:42:43.773Z,996.72
2019-02-09T06:43:43.759Z,996.76
2019-02-09T06:44:43.749Z,996.77
2019-02-09T06:45:43.761Z,996.71
2019-02-09T06:46:43.727Z,996.75
2019-02-09T06:47:43.717Z,996.74
2019-02-09T06:48:43.705Z,996.72
2019-02-09T06:49:43.695Z,996.74
2019-02-09T06:50:43.709Z,996.68
2019-02-09T06:51:43.673Z,996.78
2019-02-09T06:52:43.662Z,996.78
2019-02-09T06:53:43.651Z,996.76
2019-02-09T06:54:43.639Z,996.90
2019-02-09T06:55:43.655Z,996.93
2019-02-09T06:56:43.621Z,996.86
2019-02-09T06:57:43.608Z,996.86
2019-02-09T06:58:43.598Z,996.90
2019-02-09T06:59:43.588Z,996.88
2019-02-09T07:00:43.601Z,996.86
2019-02-09T07:01:48.598Z,996.81
2019-02-09T07:02:44.556Z,996.85
2019-02-09T07:03:43.545Z,996.81
2019-02-09T07:04:43.535Z,996.72
2019-02-09T07:05:43.545Z,996.79
2019-02-09T07:06:43.510Z,996.74
2019-02-09T07:07:43.500Z,996.82
2019-02-09T07:08:43.489Z,996.87
2019-02-09T07:09:43.477Z,996.76
2019-02-09T07:10:43.493Z,996.81
2019-02-09T07:11:43.455Z,996.76
2019-02-09T07:12:43.444Z,996.89
2019-02-09T07:13:43.436Z,996.83
2019-02-09T07:14:43.424Z,996.82
2019-02-09T07:15:43.444Z,996.85
2019-02-09T07:16:43.401Z,996.85
2019-02-09T07:17:43.389Z,996.85
2019-02-09T07:18:43.379Z,996.92
2019-02-09T07:19:43.371Z,996.94
2019-02-09T07:20:43.382Z,996.95
2019-02-09T07:21:43.350Z,996.97
2019-02-09T07:22:43.336Z,997.03
2019-02-09T07:23:43.325Z,997.11
2019-02-09T07:24:43.313Z,997.10
2019-02-09T07:25:43.330Z,997.01
2019-02-09T07:26:43.325Z,997.04
2019-02-09T07:27:43.283Z,997.03
2019-02-09T07:28:43.271Z,997.06
2019-02-09T07:29:43.260Z,997.09
2019-02-09T07:30:43.275Z,997.04
2019-02-09T07:31:43.240Z,997.04
2019-02-09T07:32:43.227Z,997.06
2019-02-09T07:33:43.219Z,997.02
2019-02-09T07:34:43.208Z,997.04
2019-02-09T07:35:43.878Z,996.97
2019-02-09T07:36:43.189Z,996.97
2019-02-09T07:37:43.184Z,997.01
2019-02-09T07:38:43.165Z,997.00
2019-02-09T07:39:43.153Z,996.98
2019-02-09T07:40:43.171Z,996.98
2019-02-09T07:41:43.131Z,996.98
2019-02-09T07:42:43.119Z,996.99
2019-02-09T07:43:43.109Z,996.99
2019-02-09T07:44:43.099Z,996.96
2019-02-09T07:45:43.113Z,997.10
2019-02-09T07:46:43.076Z,997.03
2019-02-09T07:47:43.065Z,997.03
2019-02-09T07:48:43.062Z,997.05
2019-02-09T07:49:43.047Z,997.04
2019-02-09T07:50:43.058Z,997.05
2019-02-09T07:51:43.021Z,997.10
2019-02-09T07:52:43.012Z,997.07
2019-02-09T07:53:43.000Z,997.07
2019-02-09T07:54:43.043Z,997.06
2019-02-09T07:55:43.004Z,997.09
2019-02-09T07:56:42.967Z,997.09
2019-02-09T07:57:42.955Z,997.09
2019-02-09T07:58:42.948Z,997.10
2019-02-09T07:59:42.934Z,997.07
2019-02-09T08:00:42.948Z,997.10
2019-02-09T08:01:42.914Z,997.10
2019-02-09T08:02:42.902Z,997.04
2019-02-09T08:03:42.919Z,997.07
2019-02-09T08:04:42.881Z,997.07
2019-02-09T08:05:42.896Z,997.04
2019-02-09T08:06:42.860Z,997.05
2019-02-09T08:07:42.848Z,997.07
2019-02-09T08:08:42.837Z,997.10
2019-02-09T08:09:42.831Z,997.12
2019-02-09T08:10:42.849Z,997.17
2019-02-09T08:11:42.809Z,997.12
2019-02-09T08:12:42.796Z,997.17
2019-02-09T08:13:42.782Z,997.12
2019-02-09T08:14:42.774Z,997.20
2019-02-09T08:15:42.787Z,997.08
2019-02-09T08:16:42.749Z,997.16
2019-02-09T08:17:42.739Z,997.18
2019-02-09T08:18:42.730Z,997.12
2019-02-09T08:19:42.719Z,997.14
2019-02-09T08:20:42.733Z,997.14
2019-02-09T08:21:42.697Z,997.10
2019-02-09T08:22:42.685Z,997.08
2019-02-09T08:23:42.687Z,997.10
2019-02-09T08:24:42.664Z,997.15
2019-02-09T08:25:42.680Z,997.12
2019-02-09T08:26:42.643Z,997.15
2019-02-09T08:27:42.632Z,997.21
2019-02-09T08:28:42.622Z,997.15
2019-02-09T08:29:42.611Z,997.17
2019-02-09T08:30:42.625Z,997.18
2019-02-09T08:31:42.587Z,997.22
2019-02-09T08:32:42.579Z,997.17
2019-02-09T08:33:42.566Z,997.08
2019-02-09T08:34:42.559Z,997.06
2019-02-09T08:35:42.589Z,997.08
2019-02-09T08:36:42.534Z,997.07
2019-02-09T08:37:42.522Z,997.00
2019-02-09T08:38:42.511Z,997.03
2019-02-09T08:39:42.501Z,997.00
2019-02-09T08:40:42.518Z,997.02
2019-02-09T08:41:42.484Z,997.01
2019-02-09T08:42:42.469Z,996.89
2019-02-09T08:43:42.458Z,996.99
2019-02-09T08:44:42.452Z,997.11
2019-02-09T08:45:42.463Z,997.04
2019-02-09T08:46:42.428Z,997.14
2019-02-09T08:47:42.414Z,997.07
2019-02-09T08:48:42.406Z,997.00
2019-02-09T08:49:42.397Z,997.14
2019-02-09T08:50:42.412Z,997.16
2019-02-09T08:51:42.375Z,997.14
2019-02-09T08:52:42.377Z,997.20
2019-02-09T08:53:42.350Z,997.19
2019-02-09T08:54:42.342Z,997.20
2019-02-09T08:55:42.357Z,997.26
2019-02-09T08:56:42.322Z,997.30
2019-02-09T08:57:42.307Z,997.25
2019-02-09T08:58:42.296Z,997.21
2019-02-09T08:59:42.286Z,997.23
2019-02-09T09:00:42.301Z,997.22
2019-02-09T09:01:42.265Z,997.26
2019-02-09T09:02:42.254Z,997.22
2019-02-09T09:03:42.247Z,997.26
2019-02-09T09:04:42.234Z,997.23
2019-02-09T09:05:42.254Z,997.33
2019-02-09T09:06:42.213Z,997.22
2019-02-09T09:07:42.207Z,997.26
2019-02-09T09:08:42.197Z,997.38
2019-02-09T09:09:43.515Z,997.25
2019-02-09T09:10:42.194Z,997.22
2019-02-09T09:11:42.161Z,997.30
2019-02-09T09:12:42.150Z,997.23
2019-02-09T09:13:42.144Z,997.27
2019-02-09T09:14:42.134Z,997.27
2019-02-09T09:15:42.143Z,997.23
2019-02-09T09:16:42.107Z,997.25
2019-02-09T09:17:42.097Z,997.27
2019-02-09T09:18:42.087Z,997.19
2019-02-09T09:19:42.073Z,997.17
2019-02-09T09:20:42.094Z,997.21
2019-02-09T09:21:42.055Z,997.11
2019-02-09T09:22:42.043Z,997.13
2019-02-09T09:23:42.035Z,997.17
2019-02-09T09:24:42.022Z,997.28
2019-02-09T09:25:42.057Z,997.33
2019-02-09T09:26:41.999Z,997.35
2019-02-09T09:27:41.988Z,997.29
2019-02-09T09:28:41.977Z,997.25
2019-02-09T09:29:41.969Z,997.24
2019-02-09T09:30:41.983Z,997.32
2019-02-09T09:31:41.946Z,997.35
2019-02-09T09:32:41.933Z,997.44
2019-02-09T09:33:41.923Z,997.40
2019-02-09T09:34:41.914Z,997.46
2019-02-09T09:35:41.925Z,997.48
2019-02-09T09:36:41.891Z,997.41
2019-02-09T09:37:41.928Z,997.46
2019-02-09T09:38:41.866Z,997.39
2019-02-09T09:39:41.879Z,997.50
2019-02-09T09:40:41.892Z,997.46
2019-02-09T09:41:41.852Z,997.43
2019-02-09T09:42:41.825Z,997.41
2019-02-09T09:43:41.814Z,997.52
2019-02-09T09:44:41.804Z,997.45
2019-02-09T09:45:41.820Z,997.43
2019-02-09T09:46:41.781Z,997.47
2019-02-09T09:47:41.772Z,997.53
2019-02-09T09:48:41.761Z,997.51
2019-02-09T09:49:41.750Z,997.48
2019-02-09T09:50:41.765Z,997.51
2019-02-09T09:51:41.731Z,997.49
2019-02-09T09:52:41.719Z,997.44
2019-02-09T09:53:41.714Z,997.47
2019-02-09T09:54:41.697Z,997.49
2019-02-09T09:55:41.714Z,997.53
2019-02-09T09:56:41.677Z,997.42
2019-02-09T09:57:41.670Z,997.54
2019-02-09T09:58:41.652Z,997.53
2019-02-09T09:59:41.641Z,997.59
2019-02-09T10:00:41.664Z,997.58
2019-02-09T10:01:41.622Z,997.57
2019-02-09T10:02:41.614Z,997.54
2019-02-09T10:03:41.600Z,997.48
2019-02-09T10:04:41.593Z,997.69
2019-02-09T10:05:41.601Z,997.61
2019-02-09T10:06:41.568Z,997.64
2019-02-09T10:07:41.561Z,997.57
2019-02-09T10:08:41.548Z,997.64
2019-02-09T10:09:41.537Z,997.80
2019-02-09T10:10:41.548Z,997.74
2019-02-09T10:11:41.515Z,997.67
2019-02-09T10:12:41.501Z,997.63
2019-02-09T10:13:41.492Z,997.55
2019-02-09T10:14:41.483Z,997.55
2019-02-09T10:15:41.496Z,997.65
2019-02-09T10:16:41.460Z,997.61
2019-02-09T10:17:41.452Z,997.60
2019-02-09T10:18:41.437Z,997.60
2019-02-09T10:19:41.427Z,997.64
2019-02-09T10:20:41.440Z,997.66
2019-02-09T10:21:41.405Z,997.62
2019-02-09T10:22:41.395Z,997.69
2019-02-09T10:23:41.385Z,997.65
2019-02-09T10:24:41.370Z,997.65
2019-02-09T10:25:41.386Z,997.70
2019-02-09T10:26:41.351Z,997.76
2019-02-09T10:27:41.339Z,997.64
2019-02-09T10:28:41.329Z,997.70
2019-02-09T10:29:41.317Z,997.75
2019-02-09T10:30:41.382Z,997.68
2019-02-09T10:31:41.300Z,997.74
2019-02-09T10:32:44.541Z,997.82
2019-02-09T10:33:41.275Z,997.63
2019-02-09T10:34:41.265Z,997.66
2019-02-09T10:35:41.281Z,997.65
2019-02-09T10:36:41.243Z,997.67
2019-02-09T10:37:41.234Z,997.70
2019-02-09T10:38:41.222Z,997.73
2019-02-09T10:39:41.235Z,997.78
2019-02-09T10:40:41.227Z,997.77
2019-02-09T10:41:41.190Z,997.73
2019-02-09T10:42:41.181Z,997.79
2019-02-09T10:43:41.169Z,997.71
2019-02-09T10:44:41.158Z,997.77
2019-02-09T10:45:41.293Z,997.79
2019-02-09T10:46:41.137Z,997.67
2019-02-09T10:47:41.128Z,997.78
2019-02-09T10:48:41.115Z,997.85
2019-02-09T10:49:41.103Z,997.74
2019-02-09T10:50:41.119Z,997.72
2019-02-09T10:51:41.084Z,997.73
2019-02-09T10:52:41.070Z,997.71
2019-02-09T10:53:41.065Z,997.74
2019-02-09T10:54:41.058Z,997.83
2019-02-09T10:55:41.063Z,997.79
2019-02-09T10:56:41.028Z,997.81
2019-02-09T10:57:41.016Z,997.85
2019-02-09T10:58:41.007Z,997.96
2019-02-09T10:59:40.996Z,997.75
2019-02-09T11:00:41.014Z,997.75
2019-02-09T11:01:40.975Z,997.88
2019-02-09T11:02:40.971Z,997.74
2019-02-09T11:03:40.951Z,997.79
2019-02-09T11:04:40.940Z,997.82
2019-02-09T11:05:40.956Z,997.95
2019-02-09T11:06:40.921Z,997.84
2019-02-09T11:07:40.911Z,997.83
2019-02-09T11:08:40.899Z,997.82
2019-02-09T11:09:40.886Z,997.79
2019-02-09T11:10:40.907Z,997.88
2019-02-09T11:11:40.873Z,997.78
2019-02-09T11:12:40.854Z,997.99
2019-02-09T11:13:40.849Z,997.88
2019-02-09T11:14:40.832Z,997.99
2019-02-09T11:15:40.850Z,997.87
2019-02-09T11:16:40.812Z,997.93
2019-02-09T11:17:40.804Z,997.72
2019-02-09T11:18:40.790Z,997.72
2019-02-09T11:19:40.782Z,997.80
2019-02-09T11:20:40.794Z,997.83
2019-02-09T11:21:40.761Z,997.91
2019-02-09T11:22:40.749Z,997.79
2019-02-09T11:23:40.737Z,997.74
2019-02-09T11:24:40.729Z,997.89
2019-02-09T11:25:40.743Z,997.74
2019-02-09T11:26:40.704Z,997.90
2019-02-09T11:27:40.694Z,997.90
2019-02-09T11:28:40.682Z,997.98
2019-02-09T11:29:40.673Z,997.96
2019-02-09T11:30:40.687Z,997.87
2019-02-09T11:31:40.674Z,997.98
2019-02-09T11:32:40.639Z,998.02
2019-02-09T11:33:40.640Z,997.97
2019-02-09T11:34:40.618Z,997.80
2019-02-09T11:35:40.638Z,997.94
2019-02-09T11:36:40.599Z,997.91
2019-02-09T11:37:40.590Z,997.77
2019-02-09T11:38:40.575Z,997.91
2019-02-09T11:39:40.565Z,998.06
2019-02-09T11:40:40.596Z,997.81
2019-02-09T11:41:40.545Z,997.91
2019-02-09T11:42:40.532Z,997.86
2019-02-09T11:43:40.520Z,997.98
2019-02-09T11:44:41.348Z,997.94
2019-02-09T11:45:40.569Z,997.99
2019-02-09T11:46:40.488Z,997.93
2019-02-09T11:47:40.479Z,997.96
2019-02-09T11:48:40.470Z,997.97
2019-02-09T11:49:40.455Z,998.01
2019-02-09T11:50:40.472Z,997.90
2019-02-09T11:51:40.432Z,997.82
2019-02-09T11:52:40.423Z,998.01
2019-02-09T11:53:40.411Z,997.93
2019-02-09T11:54:40.402Z,997.90
2019-02-09T11:55:40.419Z,997.87
2019-02-09T11:56:40.380Z,997.93
2019-02-09T11:57:40.373Z,997.93
2019-02-09T11:58:40.360Z,997.85
2019-02-09T11:59:40.350Z,997.97
2019-02-09T12:00:40.361Z,997.84
2019-02-09T12:01:40.326Z,997.90
2019-02-09T12:02:40.319Z,998.09
2019-02-09T12:03:40.305Z,998.13
2019-02-09T12:04:40.296Z,998.07
2019-02-09T12:05:40.306Z,997.84
2019-02-09T12:06:40.274Z,997.83
2019-02-09T12:07:40.262Z,997.82
2019-02-09T12:08:40.251Z,997.86
2019-02-09T12:09:40.242Z,997.85
2019-02-09T12:10:40.253Z,998.04
2019-02-09T12:11:40.221Z,997.89
2019-02-09T12:12:40.208Z,997.81
2019-02-09T12:13:40.212Z,997.83
2019-02-09T12:14:40.216Z,997.84
2019-02-09T12:15:40.196Z,997.87
2019-02-09T12:16:40.164Z,997.84
2019-02-09T12:17:40.152Z,997.84
2019-02-09T12:18:40.141Z,997.86
2019-02-09T12:19:40.131Z,997.83
2019-02-09T12:20:40.148Z,997.90
2019-02-09T12:21:40.109Z,997.89
2019-02-09T12:22:40.097Z,997.98
2019-02-09T12:23:40.093Z,998.05
2019-02-09T12:24:40.075Z,998.07
2019-02-09T12:25:40.098Z,998.05